Weldona, Colorado
Current Conditions -  °F | °C
As of 11:15 AM on Sunday 25 Jan 2015 (Local Time) from KFMM Reporting Station
Scattered Clouds Scattered Clouds  
Wind Chill: 42°   Ceiling: Unl
Heat Index: 45°   Visibility: 10mi
Dew Point: 30°   Wind: 7mph
Humidity: 55%   Direction: 240°WSW
Pressure: 30.17"   Gusts: NA
Location:  40.35°N, 103.97°W
Report Text: KFMM 251815Z AUTO 24006KT 10SM SCT090 07/M01 A3017 RMK AO2 T00741011
Loading
Personal Weather Stations






























Interactive Weather Map New forecast layout! Learn more

10-Day Weather Forecast

Advertisements
Track Severe Weather on mobile